sensor_id;sensor_type;location;lat;lon;timestamp;pressure;altitude;pressure_sealevel;temperature;humidity
7834;BME280;3962;42.696;23.354;2023-02-24T00:02:16;95214.50;;;7.74;89.14
7834;BME280;3962;42.696;23.354;2023-02-24T00:04:54;95216.44;;;7.72;89.30
7834;BME280;3962;42.696;23.354;2023-02-24T00:07:24;95221.41;;;7.65;89.51
7834;BME280;3962;42.696;23.354;2023-02-24T00:10:07;95212.88;;;7.62;90.05
7834;BME280;3962;42.696;23.354;2023-02-24T00:12:36;95216.66;;;7.59;89.97
7834;BME280;3962;42.696;23.354;2023-02-24T00:15:05;95213.16;;;7.59;89.77
7834;BME280;3962;42.696;23.354;2023-02-24T00:17:33;95205.72;;;7.53;90.31
7834;BME280;3962;42.696;23.354;2023-02-24T00:20:09;95206.97;;;7.49;90.21
7834;BME280;3962;42.696;23.354;2023-02-24T00:22:40;95205.16;;;7.49;89.62
7834;BME280;3962;42.696;23.354;2023-02-24T00:25:11;95193.97;;;7.46;90.16
7834;BME280;3962;42.696;23.354;2023-02-24T00:27:40;95201.53;;;7.50;90.40
7834;BME280;3962;42.696;23.354;2023-02-24T00:30:11;95199.34;;;7.55;89.99
7834;BME280;3962;42.696;23.354;2023-02-24T00:32:49;95200.03;;;7.57;89.21
7834;BME280;3962;42.696;23.354;2023-02-24T00:35:46;95203.78;;;7.55;89.45
7834;BME280;3962;42.696;23.354;2023-02-24T00:38:14;95200.72;;;7.50;89.85
7834;BME280;3962;42.696;23.354;2023-02-24T00:40:50;95189.09;;;7.41;89.25
7834;BME280;3962;42.696;23.354;2023-02-24T00:43:25;95191.34;;;7.46;90.17
7834;BME280;3962;42.696;23.354;2023-02-24T00:45:56;95189.66;;;7.45;89.90
7834;BME280;3962;42.696;23.354;2023-02-24T00:48:38;95190.31;;;7.37;89.82
7834;BME280;3962;42.696;23.354;2023-02-24T00:51:07;95187.09;;;7.34;90.68
7834;BME280;3962;42.696;23.354;2023-02-24T00:53:35;95182.31;;;7.28;89.83
7834;BME280;3962;42.696;23.354;2023-02-24T00:56:05;95185.34;;;7.23;90.37
7834;BME280;3962;42.696;23.354;2023-02-24T00:58:35;95177.22;;;7.15;90.46
7834;BME280;3962;42.696;23.354;2023-02-24T01:01:02;95178.91;;;7.16;90.75
7834;BME280;3962;42.696;23.354;2023-02-24T01:03:31;95181.44;;;7.18;91.63
7834;BME280;3962;42.696;23.354;2023-02-24T01:06:01;95185.88;;;7.17;91.33
7834;BME280;3962;42.696;23.354;2023-02-24T01:08:28;95177.34;;;7.14;91.10
7834;BME280;3962;42.696;23.354;2023-02-24T01:11:05;95175.44;;;7.16;91.06
7834;BME280;3962;42.696;23.354;2023-02-24T01:13:53;95158.53;;;7.07;90.76
7834;BME280;3962;42.696;23.354;2023-02-24T01:16:20;95174.47;;;7.17;91.02
7834;BME280;3962;42.696;23.354;2023-02-24T01:18:50;95171.94;;;7.15;91.24
7834;BME280;3962;42.696;23.354;2023-02-24T01:21:22;95176.66;;;7.12;90.69
7834;BME280;3962;42.696;23.354;2023-02-24T01:23:53;95172.31;;;7.11;91.01
7834;BME280;3962;42.696;23.354;2023-02-24T01:26:30;95161.16;;;7.07;91.53
7834;BME280;3962;42.696;23.354;2023-02-24T01:29:00;95160.59;;;7.04;90.68
7834;BME280;3962;42.696;23.354;2023-02-24T01:31:43;95134.72;;;6.87;90.92
7834;BME280;3962;42.696;23.354;2023-02-24T01:34:14;95150.91;;;6.94;91.82
7834;BME280;3962;42.696;23.354;2023-02-24T01:36:47;95144.22;;;6.90;91.71
7834;BME280;3962;42.696;23.354;2023-02-24T01:39:17;95140.00;;;6.87;91.99
7834;BME280;3962;42.696;23.354;2023-02-24T01:41:49;95152.66;;;6.84;91.64
7834;BME280;3962;42.696;23.354;2023-02-24T01:47:25;95146.31;;;6.75;91.15
7834;BME280;3962;42.696;23.354;2023-02-24T01:50:05;95147.03;;;6.77;92.41
7834;BME280;3962;42.696;23.354;2023-02-24T01:52:38;95147.28;;;6.74;91.76
7834;BME280;3962;42.696;23.354;2023-02-24T01:55:09;95142.38;;;6.70;91.31
7834;BME280;3962;42.696;23.354;2023-02-24T01:57:38;95146.69;;;6.71;91.24
7834;BME280;3962;42.696;23.354;2023-02-24T02:00:11;95147.94;;;6.67;91.83
7834;BME280;3962;42.696;23.354;2023-02-24T02:02:58;95149.59;;;6.68;91.55
7834;BME280;3962;42.696;23.354;2023-02-24T02:05:30;95143.03;;;6.62;91.57
7834;BME280;3962;42.696;23.354;2023-02-24T02:08:02;95143.41;;;6.58;92.41
7834;BME280;3962;42.696;23.354;2023-02-24T02:10:32;95145.59;;;6.53;91.64
7834;BME280;3962;42.696;23.354;2023-02-24T02:13:01;95142.34;;;6.49;92.00
7834;BME280;3962;42.696;23.354;2023-02-24T02:15:54;95137.31;;;6.46;93.10
7834;BME280;3962;42.696;23.354;2023-02-24T02:18:33;95136.84;;;6.41;92.43
7834;BME280;3962;42.696;23.354;2023-02-24T02:24:48;95137.03;;;6.29;92.16
7834;BME280;3962;42.696;23.354;2023-02-24T02:27:47;95138.38;;;6.23;93.23
7834;BME280;3962;42.696;23.354;2023-02-24T02:30:58;95132.22;;;6.23;92.65
7834;BME280;3962;42.696;23.354;2023-02-24T02:34:07;95141.13;;;6.22;93.17
7834;BME280;3962;42.696;23.354;2023-02-24T02:36:51;95136.69;;;6.22;92.76
7834;BME280;3962;42.696;23.354;2023-02-24T02:39:46;95134.06;;;6.22;93.62
7834;BME280;3962;42.696;23.354;2023-02-24T02:42:34;95137.63;;;6.21;93.49
7834;BME280;3962;42.696;23.354;2023-02-24T02:45:10;95129.00;;;6.19;93.32
7834;BME280;3962;42.696;23.354;2023-02-24T02:47:41;95136.22;;;6.17;93.79
7834;BME280;3962;42.696;23.354;2023-02-24T02:50:16;95140.28;;;6.21;93.44
7834;BME280;3962;42.696;23.354;2023-02-24T02:52:54;95142.69;;;6.24;92.63
7834;BME280;3962;42.696;23.354;2023-02-24T02:55:31;95139.34;;;6.22;93.51
7834;BME280;3962;42.696;23.354;2023-02-24T02:58:02;95132.50;;;6.20;92.82
7834;BME280;3962;42.696;23.354;2023-02-24T03:00:37;95130.34;;;6.14;92.47
7834;BME280;3962;42.696;23.354;2023-02-24T03:03:09;95122.69;;;6.11;93.51
7834;BME280;3962;42.696;23.354;2023-02-24T03:05:43;95127.00;;;6.12;93.28
7834;BME280;3962;42.696;23.354;2023-02-24T03:08:34;95121.00;;;6.10;93.37
7834;BME280;3962;42.696;23.354;2023-02-24T03:11:11;95123.06;;;6.06;93.01
7834;BME280;3962;42.696;23.354;2023-02-24T03:13:44;95123.16;;;6.05;92.53
7834;BME280;3962;42.696;23.354;2023-02-24T03:16:16;95124.97;;;6.04;92.43
7834;BME280;3962;42.696;23.354;2023-02-24T03:18:47;95126.41;;;6.08;92.69
7834;BME280;3962;42.696;23.354;2023-02-24T03:21:30;95127.22;;;6.09;93.20
7834;BME280;3962;42.696;23.354;2023-02-24T03:24:00;95123.66;;;6.10;93.11
7834;BME280;3962;42.696;23.354;2023-02-24T03:26:39;95126.34;;;6.19;93.54
7834;BME280;3962;42.696;23.354;2023-02-24T03:29:16;95141.59;;;6.27;91.95
7834;BME280;3962;42.696;23.354;2023-02-24T03:31:51;95140.47;;;6.29;91.62
7834;BME280;3962;42.696;23.354;2023-02-24T03:34:44;95141.59;;;6.27;91.97
7834;BME280;3962;42.696;23.354;2023-02-24T03:37:37;95133.53;;;6.28;90.92
7834;BME280;3962;42.696;23.354;2023-02-24T03:40:08;95125.97;;;6.24;91.78
7834;BME280;3962;42.696;23.354;2023-02-24T03:42:39;95137.28;;;6.26;92.38
7834;BME280;3962;42.696;23.354;2023-02-24T03:45:08;95130.88;;;6.28;91.64
7834;BME280;3962;42.696;23.354;2023-02-24T03:48:04;95124.63;;;6.29;91.79
7834;BME280;3962;42.696;23.354;2023-02-24T03:50:53;95127.31;;;6.18;91.37
7834;BME280;3962;42.696;23.354;2023-02-24T03:53:30;95129.03;;;6.08;91.97
7834;BME280;3962;42.696;23.354;2023-02-24T03:56:16;95128.06;;;6.09;92.50
7834;BME280;3962;42.696;23.354;2023-02-24T03:59:15;95128.44;;;6.05;92.47
7834;BME280;3962;42.696;23.354;2023-02-24T04:01:51;95131.09;;;6.05;93.02
7834;BME280;3962;42.696;23.354;2023-02-24T04:04:26;95128.34;;;6.06;91.95
7834;BME280;3962;42.696;23.354;2023-02-24T04:06:59;95124.00;;;6.05;92.27
7834;BME280;3962;42.696;23.354;2023-02-24T04:09:42;95132.78;;;6.06;92.70
7834;BME280;3962;42.696;23.354;2023-02-24T04:12:18;95129.41;;;6.04;92.30
7834;BME280;3962;42.696;23.354;2023-02-24T04:14:49;95126.63;;;6.05;92.63
7834;BME280;3962;42.696;23.354;2023-02-24T04:17:27;95122.47;;;6.03;92.74
7834;BME280;3962;42.696;23.354;2023-02-24T04:19:58;95122.84;;;5.98;92.55
7834;BME280;3962;42.696;23.354;2023-02-24T04:22:28;95121.72;;;6.01;92.70
7834;BME280;3962;42.696;23.354;2023-02-24T04:25:00;95124.13;;;6.04;92.76
7834;BME280;3962;42.696;23.354;2023-02-24T04:27:30;95124.72;;;6.07;91.65
7834;BME280;3962;42.696;23.354;2023-02-24T04:30:00;95122.53;;;6.12;92.62
7834;BME280;3962;42.696;23.354;2023-02-24T04:32:41;95118.81;;;6.15;92.49
7834;BME280;3962;42.696;23.354;2023-02-24T04:35:18;95107.88;;;6.19;91.26
7834;BME280;3962;42.696;23.354;2023-02-24T04:37:53;95115.78;;;6.19;91.20
7834;BME280;3962;42.696;23.354;2023-02-24T04:40:23;95104.41;;;6.19;91.60
7834;BME280;3962;42.696;23.354;2023-02-24T04:42:55;95101.88;;;6.17;91.97
7834;BME280;3962;42.696;23.354;2023-02-24T04:45:26;95100.66;;;6.21;91.57
7834;BME280;3962;42.696;23.354;2023-02-24T04:48:00;95090.81;;;6.23;91.01
7834;BME280;3962;42.696;23.354;2023-02-24T04:50:42;95087.69;;;6.18;91.56
7834;BME280;3962;42.696;23.354;2023-02-24T04:53:23;95097.66;;;6.26;90.80
7834;BME280;3962;42.696;23.354;2023-02-24T04:56:13;95097.66;;;6.26;90.10
7834;BME280;3962;42.696;23.354;2023-02-24T04:58:43;95104.09;;;6.33;91.04
7834;BME280;3962;42.696;23.354;2023-02-24T05:01:15;95096.75;;;6.36;89.78
7834;BME280;3962;42.696;23.354;2023-02-24T05:03:42;95097.09;;;6.43;89.24
7834;BME280;3962;42.696;23.354;2023-02-24T05:06:13;95099.28;;;6.38;89.30
7834;BME280;3962;42.696;23.354;2023-02-24T05:08:40;95101.31;;;6.34;89.10
7834;BME280;3962;42.696;23.354;2023-02-24T05:11:13;95095.72;;;6.28;89.92
7834;BME280;3962;42.696;23.354;2023-02-24T05:13:42;95097.97;;;6.32;89.90
7834;BME280;3962;42.696;23.354;2023-02-24T05:16:12;95101.66;;;6.41;90.83
7834;BME280;3962;42.696;23.354;2023-02-24T05:18:40;95097.22;;;6.41;89.98
7834;BME280;3962;42.696;23.354;2023-02-24T05:21:09;95107.78;;;6.41;89.51
7834;BME280;3962;42.696;23.354;2023-02-24T05:23:54;95113.19;;;6.40;90.30
7834;BME280;3962;42.696;23.354;2023-02-24T05:26:24;95107.41;;;6.46;90.10
7834;BME280;3962;42.696;23.354;2023-02-24T05:28:53;95115.34;;;6.46;90.43
7834;BME280;3962;42.696;23.354;2023-02-24T05:31:25;95116.50;;;6.53;91.70
7834;BME280;3962;42.696;23.354;2023-02-24T05:33:54;95116.41;;;6.95;90.52
7834;BME280;3962;42.696;23.354;2023-02-24T05:36:23;95112.00;;;7.05;89.69
7834;BME280;3962;42.696;23.354;2023-02-24T05:38:52;95116.63;;;7.33;90.15
7834;BME280;3962;42.696;23.354;2023-02-24T05:41:24;95106.94;;;7.22;88.50
7834;BME280;3962;42.696;23.354;2023-02-24T05:43:57;95122.06;;;7.11;87.83
7834;BME280;3962;42.696;23.354;2023-02-24T05:46:28;95127.78;;;6.96;89.22
7834;BME280;3962;42.696;23.354;2023-02-24T05:48:58;95118.00;;;6.87;90.28
7834;BME280;3962;42.696;23.354;2023-02-24T05:51:26;95117.09;;;6.77;90.04
7834;BME280;3962;42.696;23.354;2023-02-24T05:54:00;95112.59;;;6.68;91.94
7834;BME280;3962;42.696;23.354;2023-02-24T05:56:30;95114.56;;;6.55;92.21
7834;BME280;3962;42.696;23.354;2023-02-24T05:58:59;95116.38;;;6.54;91.78
7834;BME280;3962;42.696;23.354;2023-02-24T06:01:27;95121.78;;;6.53;92.19
7834;BME280;3962;42.696;23.354;2023-02-24T06:03:55;95118.81;;;6.46;92.18
7834;BME280;3962;42.696;23.354;2023-02-24T06:06:33;95137.91;;;6.50;92.67
7834;BME280;3962;42.696;23.354;2023-02-24T06:09:01;95139.78;;;6.59;92.01
7834;BME280;3962;42.696;23.354;2023-02-24T06:11:35;95131.41;;;6.54;92.28
7834;BME280;3962;42.696;23.354;2023-02-24T06:14:02;95134.75;;;6.56;92.10
7834;BME280;3962;42.696;23.354;2023-02-24T06:16:31;95138.50;;;6.53;91.74
7834;BME280;3962;42.696;23.354;2023-02-24T06:18:58;95138.28;;;6.45;91.77
7834;BME280;3962;42.696;23.354;2023-02-24T06:21:25;95140.78;;;6.47;92.42
7834;BME280;3962;42.696;23.354;2023-02-24T06:23:54;95141.25;;;6.52;92.84
7834;BME280;3962;42.696;23.354;2023-02-24T06:26:22;95142.34;;;6.49;92.08
7834;BME280;3962;42.696;23.354;2023-02-24T06:28:52;95128.06;;;6.41;93.49
7834;BME280;3962;42.696;23.354;2023-02-24T06:31:19;95141.00;;;6.55;93.47
7834;BME280;3962;42.696;23.354;2023-02-24T06:33:47;95138.34;;;6.55;92.95
7834;BME280;3962;42.696;23.354;2023-02-24T06:36:14;95140.03;;;6.56;92.94
7834;BME280;3962;42.696;23.354;2023-02-24T06:38:41;95144.69;;;6.63;93.58
7834;BME280;3962;42.696;23.354;2023-02-24T06:41:08;95140.13;;;6.65;93.43
7834;BME280;3962;42.696;23.354;2023-02-24T06:43:36;95133.09;;;6.75;93.45
7834;BME280;3962;42.696;23.354;2023-02-24T06:46:06;95129.13;;;6.81;91.90
7834;BME280;3962;42.696;23.354;2023-02-24T06:48:34;95132.06;;;6.87;91.35
7834;BME280;3962;42.696;23.354;2023-02-24T06:51:04;95130.72;;;6.93;90.51
7834;BME280;3962;42.696;23.354;2023-02-24T06:53:32;95131.28;;;6.96;90.88
7834;BME280;3962;42.696;23.354;2023-02-24T06:56:04;95122.38;;;6.97;90.40
7834;BME280;3962;42.696;23.354;2023-02-24T06:58:39;95118.72;;;6.89;89.96
7834;BME280;3962;42.696;23.354;2023-02-24T07:01:10;95116.31;;;6.86;90.13
7834;BME280;3962;42.696;23.354;2023-02-24T07:03:38;95121.50;;;6.87;89.99
7834;BME280;3962;42.696;23.354;2023-02-24T07:06:11;95122.91;;;6.91;90.19
7834;BME280;3962;42.696;23.354;2023-02-24T07:08:48;95123.94;;;7.00;90.42
7834;BME280;3962;42.696;23.354;2023-02-24T07:11:16;95123.09;;;6.99;89.79
7834;BME280;3962;42.696;23.354;2023-02-24T07:13:44;95118.34;;;6.93;88.99
7834;BME280;3962;42.696;23.354;2023-02-24T07:16:15;95120.84;;;6.95;90.00
7834;BME280;3962;42.696;23.354;2023-02-24T07:18:43;95124.91;;;6.99;89.49
7834;BME280;3962;42.696;23.354;2023-02-24T07:21:13;95105.72;;;7.06;89.21
7834;BME280;3962;42.696;23.354;2023-02-24T07:23:42;95107.34;;;7.18;88.47
7834;BME280;3962;42.696;23.354;2023-02-24T07:26:11;95102.63;;;7.21;88.57
7834;BME280;3962;42.696;23.354;2023-02-24T07:28:40;95092.28;;;7.18;88.01
7834;BME280;3962;42.696;23.354;2023-02-24T07:31:09;95105.53;;;7.18;88.24
7834;BME280;3962;42.696;23.354;2023-02-24T07:33:38;95106.94;;;7.22;88.44
7834;BME280;3962;42.696;23.354;2023-02-24T07:36:11;95109.03;;;7.19;88.17
7834;BME280;3962;42.696;23.354;2023-02-24T07:38:39;95096.25;;;7.24;88.44
7834;BME280;3962;42.696;23.354;2023-02-24T07:41:08;95102.25;;;7.26;88.26
7834;BME280;3962;42.696;23.354;2023-02-24T07:43:35;95098.63;;;7.27;87.88
7834;BME280;3962;42.696;23.354;2023-02-24T07:46:07;95106.09;;;7.22;88.24
7834;BME280;3962;42.696;23.354;2023-02-24T07:48:36;95099.41;;;7.18;87.97
7834;BME280;3962;42.696;23.354;2023-02-24T07:51:07;95106.16;;;7.31;88.12
7834;BME280;3962;42.696;23.354;2023-02-24T07:53:35;95101.25;;;7.27;87.09
7834;BME280;3962;42.696;23.354;2023-02-24T07:56:05;95110.81;;;7.18;88.19
7834;BME280;3962;42.696;23.354;2023-02-24T07:58:35;95110.69;;;7.20;87.52
7834;BME280;3962;42.696;23.354;2023-02-24T08:01:01;95105.00;;;7.24;87.60
7834;BME280;3962;42.696;23.354;2023-02-24T08:03:34;95097.47;;;7.20;87.91
7834;BME280;3962;42.696;23.354;2023-02-24T08:06:07;95089.94;;;7.15;86.86
7834;BME280;3962;42.696;23.354;2023-02-24T08:08:41;95093.25;;;7.08;88.11
7834;BME280;3962;42.696;23.354;2023-02-24T08:11:25;95086.56;;;7.13;87.58
7834;BME280;3962;42.696;23.354;2023-02-24T08:13:52;95084.00;;;7.03;87.35
7834;BME280;3962;42.696;23.354;2023-02-24T08:16:22;95080.72;;;7.10;88.00
7834;BME280;3962;42.696;23.354;2023-02-24T08:18:49;95081.59;;;7.20;87.69
7834;BME280;3962;42.696;23.354;2023-02-24T08:21:23;95081.47;;;7.31;87.65
7834;BME280;3962;42.696;23.354;2023-02-24T08:23:51;95076.69;;;7.45;87.52
7834;BME280;3962;42.696;23.354;2023-02-24T08:26:18;95086.47;;;7.54;86.40
7834;BME280;3962;42.696;23.354;2023-02-24T08:28:55;95081.47;;;7.51;86.47
7834;BME280;3962;42.696;23.354;2023-02-24T08:31:22;95069.34;;;7.58;86.40
7834;BME280;3962;42.696;23.354;2023-02-24T08:33:49;95081.09;;;7.75;85.82
7834;BME280;3962;42.696;23.354;2023-02-24T08:36:20;95069.09;;;7.61;85.09
7834;BME280;3962;42.696;23.354;2023-02-24T08:38:52;95076.63;;;7.66;85.68
7834;BME280;3962;42.696;23.354;2023-02-24T08:41:21;95087.25;;;7.85;85.24
7834;BME280;3962;42.696;23.354;2023-02-24T08:44:08;95082.25;;;7.82;85.05
7834;BME280;3962;42.696;23.354;2023-02-24T08:46:35;95065.97;;;7.96;84.76
7834;BME280;3962;42.696;23.354;2023-02-24T08:49:02;95072.81;;;8.08;83.24
7834;BME280;3962;42.696;23.354;2023-02-24T08:51:36;95067.50;;;8.08;83.00
7834;BME280;3962;42.696;23.354;2023-02-24T08:54:12;95065.00;;;8.16;83.67
7834;BME280;3962;42.696;23.354;2023-02-24T08:56:41;95067.72;;;8.35;83.37
7834;BME280;3962;42.696;23.354;2023-02-24T08:59:10;95069.94;;;8.58;82.37
7834;BME280;3962;42.696;23.354;2023-02-24T09:01:54;95058.22;;;8.61;81.06
7834;BME280;3962;42.696;23.354;2023-02-24T09:04:42;95057.22;;;8.62;81.60
7834;BME280;3962;42.696;23.354;2023-02-24T09:07:15;95060.00;;;8.70;80.77
7834;BME280;3962;42.696;23.354;2023-02-24T09:09:43;95066.44;;;8.77;80.00
7834;BME280;3962;42.696;23.354;2023-02-24T09:12:13;95062.22;;;8.93;79.46
7834;BME280;3962;42.696;23.354;2023-02-24T09:14:47;95064.13;;;9.10;79.45
7834;BME280;3962;42.696;23.354;2023-02-24T09:17:15;95064.81;;;9.22;78.25
7834;BME280;3962;42.696;23.354;2023-02-24T09:19:47;95059.88;;;9.27;77.84
7834;BME280;3962;42.696;23.354;2023-02-24T09:22:32;95062.22;;;9.76;77.34
7834;BME280;3962;42.696;23.354;2023-02-24T09:25:09;95054.84;;;9.87;75.88
7834;BME280;3962;42.696;23.354;2023-02-24T09:27:52;95054.09;;;10.04;75.59
7834;BME280;3962;42.696;23.354;2023-02-24T09:30:22;95060.31;;;9.86;74.85
7834;BME280;3962;42.696;23.354;2023-02-24T09:33:07;95057.66;;;9.59;75.93
7834;BME280;3962;42.696;23.354;2023-02-24T09:35:46;95051.16;;;9.44;76.38
7834;BME280;3962;42.696;23.354;2023-02-24T09:38:15;95057.59;;;9.41;76.40
7834;BME280;3962;42.696;23.354;2023-02-24T09:40:44;95049.03;;;9.84;75.52
7834;BME280;3962;42.696;23.354;2023-02-24T09:43:18;95046.53;;;10.27;73.27
7834;BME280;3962;42.696;23.354;2023-02-24T09:45:52;95054.41;;;10.71;72.43
7834;BME280;3962;42.696;23.354;2023-02-24T09:48:31;95046.63;;;10.77;70.66
7834;BME280;3962;42.696;23.354;2023-02-24T09:51:13;95047.41;;;10.70;70.93
7834;BME280;3962;42.696;23.354;2023-02-24T09:53:47;95028.72;;;10.45;72.44
7834;BME280;3962;42.696;23.354;2023-02-24T09:56:27;95036.50;;;10.38;73.00
7834;BME280;3962;42.696;23.354;2023-02-24T09:59:06;95030.97;;;10.32;73.51
7834;BME280;3962;42.696;23.354;2023-02-24T10:01:45;95028.03;;;10.25;73.34
7834;BME280;3962;42.696;23.354;2023-02-24T10:04:26;95019.91;;;10.09;73.62
7834;BME280;3962;42.696;23.354;2023-02-24T10:07:00;95015.59;;;10.26;73.17
7834;BME280;3962;42.696;23.354;2023-02-24T10:09:32;95018.13;;;10.27;73.05
7834;BME280;3962;42.696;23.354;2023-02-24T10:12:08;95007.00;;;10.14;72.95
7834;BME280;3962;42.696;23.354;2023-02-24T10:14:45;95013.16;;;10.15;72.75
7834;BME280;3962;42.696;23.354;2023-02-24T10:17:19;95007.31;;;10.29;72.74
7834;BME280;3962;42.696;23.354;2023-02-24T10:19:50;94997.00;;;10.26;72.91
7834;BME280;3962;42.696;23.354;2023-02-24T10:22:38;94992.13;;;10.39;72.57
7834;BME280;3962;42.696;23.354;2023-02-24T10:25:42;94982.03;;;10.25;72.81
7834;BME280;3962;42.696;23.354;2023-02-24T10:28:25;94986.41;;;10.16;72.93
7834;BME280;3962;42.696;23.354;2023-02-24T10:31:08;94969.94;;;10.13;72.92
7834;BME280;3962;42.696;23.354;2023-02-24T10:33:50;94974.78;;;10.17;73.04
7834;BME280;3962;42.696;23.354;2023-02-24T10:36:19;94973.06;;;10.69;72.46
7834;BME280;3962;42.696;23.354;2023-02-24T10:38:55;94976.44;;;11.29;70.52
7834;BME280;3962;42.696;23.354;2023-02-24T10:41:28;94967.97;;;11.59;69.16
7834;BME280;3962;42.696;23.354;2023-02-24T10:43:57;94956.06;;;11.46;68.49
7834;BME280;3962;42.696;23.354;2023-02-24T10:46:27;94950.09;;;11.18;69.21
7834;BME280;3962;42.696;23.354;2023-02-24T10:48:59;94953.28;;;11.22;69.91
7834;BME280;3962;42.696;23.354;2023-02-24T10:51:31;94944.78;;;11.18;70.28
7834;BME280;3962;42.696;23.354;2023-02-24T10:54:09;94944.13;;;11.24;69.51
7834;BME280;3962;42.696;23.354;2023-02-24T10:57:01;94930.00;;;11.24;69.87
7834;BME280;3962;42.696;23.354;2023-02-24T10:59:52;94929.66;;;11.27;70.39
7834;BME280;3962;42.696;23.354;2023-02-24T11:02:37;94924.72;;;11.40;69.97
7834;BME280;3962;42.696;23.354;2023-02-24T11:05:22;94913.69;;;11.27;69.74
7834;BME280;3962;42.696;23.354;2023-02-24T11:08:10;94922.03;;;11.65;69.18
7834;BME280;3962;42.696;23.354;2023-02-24T11:10:50;94912.06;;;11.91;68.43
7834;BME280;3962;42.696;23.354;2023-02-24T11:13:31;94904.09;;;11.91;67.90
7834;BME280;3962;42.696;23.354;2023-02-24T11:16:17;94905.59;;;11.94;67.19
7834;BME280;3962;42.696;23.354;2023-02-24T11:19:04;94891.75;;;11.98;67.55
7834;BME280;3962;42.696;23.354;2023-02-24T11:21:32;94903.09;;;12.00;67.39
7834;BME280;3962;42.696;23.354;2023-02-24T11:23:59;94896.09;;;12.15;67.19
7834;BME280;3962;42.696;23.354;2023-02-24T11:26:33;94893.28;;;12.01;67.11
7834;BME280;3962;42.696;23.354;2023-02-24T11:29:21;94879.75;;;12.02;66.86
7834;BME280;3962;42.696;23.354;2023-02-24T11:32:19;94879.75;;;12.34;66.23
7834;BME280;3962;42.696;23.354;2023-02-24T11:34:51;94871.56;;;12.60;65.84
7834;BME280;3962;42.696;23.354;2023-02-24T11:37:31;94865.22;;;12.69;65.41
7834;BME280;3962;42.696;23.354;2023-02-24T11:40:05;94858.53;;;12.73;64.94
7834;BME280;3962;42.696;23.354;2023-02-24T11:42:37;94853.72;;;12.68;64.32
7834;BME280;3962;42.696;23.354;2023-02-24T11:45:11;94845.72;;;12.68;65.62
7834;BME280;3962;42.696;23.354;2023-02-24T11:47:54;94853.28;;;13.11;65.36
7834;BME280;3962;42.696;23.354;2023-02-24T11:50:29;94828.75;;;13.08;63.62
7834;BME280;3962;42.696;23.354;2023-02-24T11:53:02;94830.25;;;13.10;63.78
7834;BME280;3962;42.696;23.354;2023-02-24T11:55:33;94815.88;;;13.11;63.51
7834;BME280;3962;42.696;23.354;2023-02-24T11:58:08;94822.28;;;13.33;63.89
7834;BME280;3962;42.696;23.354;2023-02-24T12:00:51;94811.63;;;13.25;63.88
7834;BME280;3962;42.696;23.354;2023-02-24T12:03:28;94802.84;;;13.16;63.29
7834;BME280;3962;42.696;23.354;2023-02-24T12:06:07;94799.09;;;12.95;63.89
7834;BME280;3962;42.696;23.354;2023-02-24T12:08:37;94797.13;;;12.81;64.86
7834;BME280;3962;42.696;23.354;2023-02-24T12:11:10;94796.75;;;12.84;64.24
7834;BME280;3962;42.696;23.354;2023-02-24T12:13:44;94798.91;;;12.96;64.12
7834;BME280;3962;42.696;23.354;2023-02-24T12:16:17;94795.75;;;12.85;64.21
7834;BME280;3962;42.696;23.354;2023-02-24T12:18:50;94805.41;;;12.86;63.93
7834;BME280;3962;42.696;23.354;2023-02-24T12:21:21;94801.59;;;12.96;64.21
7834;BME280;3962;42.696;23.354;2023-02-24T12:23:51;94795.56;;;13.02;64.27
7834;BME280;3962;42.696;23.354;2023-02-24T12:26:25;94773.81;;;13.05;63.23
7834;BME280;3962;42.696;23.354;2023-02-24T12:29:19;94772.09;;;13.20;63.32
7834;BME280;3962;42.696;23.354;2023-02-24T12:31:58;94769.69;;;13.33;62.40
7834;BME280;3962;42.696;23.354;2023-02-24T12:34:37;94773.38;;;13.55;62.07
7834;BME280;3962;42.696;23.354;2023-02-24T12:37:21;94773.44;;;13.92;61.35
7834;BME280;3962;42.696;23.354;2023-02-24T12:40:00;94756.69;;;14.35;59.84
7834;BME280;3962;42.696;23.354;2023-02-24T12:42:35;94763.47;;;14.60;59.77
7834;BME280;3962;42.696;23.354;2023-02-24T12:45:11;94762.41;;;14.32;59.63
7834;BME280;3962;42.696;23.354;2023-02-24T12:47:52;94770.56;;;14.16;59.79
7834;BME280;3962;42.696;23.354;2023-02-24T12:50:29;94766.59;;;13.89;61.59
7834;BME280;3962;42.696;23.354;2023-02-24T12:53:03;94771.56;;;13.55;62.34
7834;BME280;3962;42.696;23.354;2023-02-24T12:55:39;94763.47;;;13.10;63.26
7834;BME280;3962;42.696;23.354;2023-02-24T12:58:13;94775.97;;;13.18;64.26
7834;BME280;3962;42.696;23.354;2023-02-24T13:00:52;94776.56;;;13.28;64.78
7834;BME280;3962;42.696;23.354;2023-02-24T13:03:32;94766.69;;;13.28;67.76
7834;BME280;3962;42.696;23.354;2023-02-24T13:06:13;94763.84;;;13.30;68.77
7834;BME280;3962;42.696;23.354;2023-02-24T13:08:51;94749.66;;;13.29;69.03
7834;BME280;3962;42.696;23.354;2023-02-24T13:11:28;94745.47;;;13.35;69.24
7834;BME280;3962;42.696;23.354;2023-02-24T13:14:03;94733.63;;;13.29;69.77
7834;BME280;3962;42.696;23.354;2023-02-24T13:16:33;94734.03;;;13.18;71.33
7834;BME280;3962;42.696;23.354;2023-02-24T13:19:06;94741.03;;;13.50;70.37
7834;BME280;3962;42.696;23.354;2023-02-24T13:21:34;94736.91;;;13.39;70.35
7834;BME280;3962;42.696;23.354;2023-02-24T13:24:03;94735.00;;;13.25;70.70
7834;BME280;3962;42.696;23.354;2023-02-24T13:26:31;94734.16;;;12.94;70.66
7834;BME280;3962;42.696;23.354;2023-02-24T13:29:00;94733.25;;;12.71;71.00
7834;BME280;3962;42.696;23.354;2023-02-24T13:31:40;94727.81;;;12.57;71.82
7834;BME280;3962;42.696;23.354;2023-02-24T13:34:40;94726.16;;;12.56;72.02
7834;BME280;3962;42.696;23.354;2023-02-24T13:37:10;94725.09;;;12.65;72.72
7834;BME280;3962;42.696;23.354;2023-02-24T13:39:39;94720.41;;;12.67;72.91
7834;BME280;3962;42.696;23.354;2023-02-24T13:42:22;94721.16;;;12.45;73.68
7834;BME280;3962;42.696;23.354;2023-02-24T13:44:52;94707.41;;;12.17;74.40
7834;BME280;3962;42.696;23.354;2023-02-24T13:47:46;94727.09;;;12.16;75.61
7834;BME280;3962;42.696;23.354;2023-02-24T13:50:22;94727.09;;;12.16;75.46
7834;BME280;3962;42.696;23.354;2023-02-24T13:53:07;94732.91;;;12.20;75.85
7834;BME280;3962;42.696;23.354;2023-02-24T13:55:48;94722.75;;;12.23;76.51
7834;BME280;3962;42.696;23.354;2023-02-24T13:58:39;94722.72;;;12.31;76.31
7834;BME280;3962;42.696;23.354;2023-02-24T14:01:12;94723.69;;;12.38;76.66
7834;BME280;3962;42.696;23.354;2023-02-24T14:03:41;94712.53;;;12.35;76.51
7834;BME280;3962;42.696;23.354;2023-02-24T14:06:14;94727.53;;;12.36;76.78